Time;durP1;ratioP1;P1;durP2;ratioP2;P2;SDS_P1;SDS_P2;PMS_P1;PMS_P2;Temp;Humidity;BMP_temperature;BMP_pressure;BME280_temperature;BME280_humidity;BME280_pressure;Samples;Min_cycle;Max_cycle;Signal;HPM_P1;HPM_P2
2022/08/25 00:00:49;;;;;;;9.52;2.83;;;;;;;20.90;99.15;101509.28;2079163;28;20044;-67
2022/08/25 00:01:57;;;;;;;6.00;2.53;;;;;;;20.91;99.03;101508.13;2071516;28;20037;-67
2022/08/25 00:02:59;;;;;;;9.70;2.90;;;;;;;20.92;98.91;101512.47;2071619;28;20389;-67
2022/08/25 00:04:03;;;;;;;10.40;2.95;;;;;;;20.94;98.83;101504.75;2087196;28;20048;-67
2022/08/25 00:05:08;;;;;;;8.80;2.80;;;;;;;20.92;98.89;101504.28;2078692;28;20037;-67
2022/08/25 00:06:11;;;;;;;7.82;2.80;;;;;;;20.90;98.88;101502.97;2085720;28;20033;-67
2022/08/25 00:07:13;;;;;;;9.82;2.90;;;;;;;20.90;98.81;101503.81;2094955;28;20039;-67
2022/08/25 00:08:19;;;;;;;10.35;3.20;;;;;;;20.90;98.79;101498.34;2079644;28;20041;-67
2022/08/25 00:09:24;;;;;;;7.22;2.83;;;;;;;20.90;98.84;101502.97;2071795;28;20042;-66
2022/08/25 00:10:28;;;;;;;11.63;2.83;;;;;;;20.90;98.60;101498.34;2079761;28;20044;-66
2022/08/25 00:11:33;;;;;;;10.18;2.75;;;;;;;20.87;98.61;101499.00;2079608;28;20037;-67
2022/08/25 00:12:38;;;;;;;9.38;3.10;;;;;;;20.91;98.57;101505.41;2079881;28;20049;-66
2022/08/25 00:13:50;;;;;;;6.88;3.38;;;;;;;20.88;98.38;101502.53;2079380;28;20049;-67
2022/08/25 00:14:52;;;;;;;8.13;2.88;;;;;;;20.85;98.32;101492.25;2081148;28;20509;-67
2022/08/25 00:15:53;;;;;;;9.07;3.15;;;;;;;20.82;98.27;101501.88;2079452;28;20029;-68
2022/08/25 00:17:01;;;;;;;7.90;3.30;;;;;;;20.80;98.40;101493.19;2072365;28;20057;-67
2022/08/25 00:18:06;;;;;;;13.13;3.83;;;;;;;20.82;98.30;101496.41;2078986;28;20037;-67
2022/08/25 00:19:22;;;;;;;12.13;3.83;;;;;;;20.83;98.31;101492.53;2075236;28;20066;-67
2022/08/25 00:20:24;;;;;;;12.32;3.17;;;;;;;20.82;98.26;101489.00;2087685;28;20037;-67
2022/08/25 00:21:26;;;;;;;15.10;3.10;;;;;;;20.83;98.12;101490.63;2079309;28;20483;-67
2022/08/25 00:22:29;;;;;;;5.03;3.38;;;;;;;20.83;98.05;101487.88;2078004;28;20037;-67
2022/08/25 00:23:33;;;;;;;11.82;3.92;;;;;;;20.87;98.17;101490.78;2079076;28;20099;-67
2022/08/25 00:24:35;;;;;;;10.75;3.38;;;;;;;20.85;98.18;101487.56;2071628;28;20029;-67
2022/08/25 00:25:37;;;;;;;10.25;4.10;;;;;;;20.85;98.23;101486.78;2071689;28;20044;-67
2022/08/25 00:26:43;;;;;;;10.07;3.47;;;;;;;20.84;98.02;101485.97;2063219;28;20061;-67
2022/08/25 00:27:47;;;;;;;6.22;3.15;;;;;;;20.83;98.20;101487.88;2064008;28;20422;-67
2022/08/25 00:28:52;;;;;;;7.22;3.75;;;;;;;20.83;98.18;101489.81;2072148;28;20037;-66
2022/08/25 00:29:59;;;;;;;8.85;3.50;;;;;;;20.83;98.21;101487.88;2079859;28;20041;-67
2022/08/25 00:31:03;;;;;;;14.88;4.80;;;;;;;20.81;98.19;101484.69;2063232;28;20042;-66
2022/08/25 00:32:06;;;;;;;9.65;3.65;;;;;;;20.82;98.20;101485.50;2064642;28;20081;-67
2022/08/25 00:33:13;;;;;;;8.60;3.72;;;;;;;20.83;98.06;101479.69;2079527;28;20038;-67
2022/08/25 00:34:20;;;;;;;8.15;3.58;;;;;;;20.83;98.00;101487.09;2079452;28;20041;-66
2022/08/25 00:35:23;;;;;;;13.75;3.63;;;;;;;20.81;97.96;101481.97;2080077;28;20033;-67
2022/08/25 00:36:27;;;;;;;8.77;3.40;;;;;;;20.81;97.97;101483.88;2079936;28;20053;-68
2022/08/25 00:37:31;;;;;;;16.85;3.70;;;;;;;20.79;97.99;101484.19;2078562;28;20119;-67
2022/08/25 00:38:34;;;;;;;10.82;4.18;;;;;;;20.82;97.83;101485.50;2062973;28;20042;-67
2022/08/25 00:39:39;;;;;;;8.25;3.05;;;;;;;20.82;97.74;101490.94;2079728;28;20119;-67
2022/08/25 00:40:43;;;;;;;8.68;3.78;;;;;;;20.81;97.70;101483.88;2087211;28;20040;-66
2022/08/25 00:41:44;;;;;;;11.40;4.15;;;;;;;20.81;97.62;101483.88;2071849;28;20038;-66
2022/08/25 00:42:50;;;;;;;7.20;3.60;;;;;;;20.82;97.46;101486.28;2079394;28;20057;-67
2022/08/25 00:43:51;;;;;;;7.63;3.60;;;;;;;20.81;97.50;101479.22;2070559;28;20509;-67
2022/08/25 00:44:57;;;;;;;12.32;4.10;;;;;;;20.79;97.35;101486.13;2055084;28;20964;-67
2022/08/25 00:46:01;;;;;;;9.63;3.80;;;;;;;20.78;97.40;101481.81;2063981;28;20466;-67
2022/08/25 00:47:08;;;;;;;13.93;3.95;;;;;;;20.78;97.38;101484.53;2071280;28;20478;-66
2022/08/25 00:48:13;;;;;;;8.30;3.40;;;;;;;20.79;97.15;101472.47;2072250;28;20418;-66
2022/08/25 00:49:20;;;;;;;12.52;4.88;;;;;;;20.78;97.19;101479.06;2071218;28;20072;-67
2022/08/25 00:50:23;;;;;;;9.38;3.40;;;;;;;20.80;97.20;101487.72;2072293;28;20038;-67
2022/08/25 00:51:42;;;;;;;11.05;3.47;;;;;;;20.79;97.04;101486.13;2079346;28;20046;-66
2022/08/25 00:52:50;;;;;;;14.85;3.65;;;;;;;20.76;97.05;101481.31;2079077;28;20061;-66
2022/08/25 00:53:52;;;;;;;15.55;4.20;;;;;;;20.75;97.07;101480.53;2071222;28;20030;-67
2022/08/25 00:54:58;;;;;;;19.67;4.50;;;;;;;20.72;97.04;101478.44;2074697;28;20037;-67
2022/08/25 00:56:02;;;;;;;8.40;3.80;;;;;;;20.74;97.03;101487.13;2078467;28;20065;-65
2022/08/25 00:57:11;;;;;;;15.10;3.50;;;;;;;20.70;96.96;101486.16;2086963;28;20475;-67
2022/08/25 00:58:24;;;;;;;10.55;3.85;;;;;;;20.72;96.82;101486.63;2078099;28;20057;-66
2022/08/25 00:59:27;;;;;;;10.15;3.50;;;;;;;20.73;96.99;101482.75;2064655;28;20042;-67
2022/08/25 01:00:40;;;;;;;9.20;3.25;;;;;;;20.72;96.86;101477.63;2072671;28;20065;-67
2022/08/25 01:01:50;;;;;;;10.75;3.58;;;;;;;20.69;96.79;101486.47;2072426;28;20062;-66
2022/08/25 01:02:56;;;;;;;9.30;3.40;;;;;;;20.69;96.95;101486.47;2080982;28;20030;-67
2022/08/25 01:04:00;;;;;;;8.45;3.67;;;;;;;20.67;96.84;101484.06;2080881;28;20037;-65
2022/08/25 01:05:04;;;;;;;13.13;3.60;;;;;;;20.65;96.90;101483.59;2072341;28;20706;-67
2022/08/25 01:06:08;;;;;;;5.90;3.65;;;;;;;20.67;96.93;101483.25;2070309;28;20037;-67
2022/08/25 01:07:13;;;;;;;10.85;4.10;;;;;;;20.65;97.21;101490.97;2073375;28;20037;-66
2022/08/25 01:08:21;;;;;;;13.23;4.05;;;;;;;20.66;97.13;101492.59;2080105;28;20061;-67
2022/08/25 01:09:31;;;;;;;10.93;4.20;;;;;;;20.65;97.04;101485.50;2080983;28;20588;-67
2022/08/25 01:10:35;;;;;;;12.63;3.80;;;;;;;20.67;97.06;101491.47;2081568;28;20087;-67
2022/08/25 01:11:45;;;;;;;9.05;4.00;;;;;;;20.66;97.07;101495.31;2089388;28;20055;-67
2022/08/25 01:12:56;;;;;;;9.95;4.05;;;;;;;20.69;97.09;101486.47;2064692;28;20065;-67
2022/08/25 01:14:05;;;;;;;12.55;3.70;;;;;;;20.71;97.02;101495.16;2068470;28;20522;-66
2022/08/25 01:15:11;;;;;;;11.73;3.70;;;;;;;20.71;97.14;101490.50;2064623;28;20049;-68
2022/08/25 01:16:14;;;;;;;7.90;3.83;;;;;;;20.75;97.17;101496.13;2074297;28;20056;-67
2022/08/25 01:17:16;;;;;;;12.48;4.07;;;;;;;20.77;96.96;101485.66;2089445;28;20051;-67
2022/08/25 01:18:20;;;;;;;11.00;3.92;;;;;;;20.75;97.00;101496.13;2084657;28;20045;-67
2022/08/25 01:19:23;;;;;;;11.82;3.80;;;;;;;20.76;96.89;101486.78;2081656;28;20044;-67
2022/08/25 01:20:28;;;;;;;12.13;4.25;;;;;;;20.71;97.02;101486.94;2080840;28;20097;-67
2022/08/25 01:21:38;;;;;;;12.07;4.13;;;;;;;20.69;97.01;101481.81;2065037;28;20038;-67
2022/08/25 01:22:43;;;;;;;8.85;3.97;;;;;;;20.70;96.94;101488.09;2060857;28;20045;-67
2022/08/25 01:23:47;;;;;;;9.63;3.90;;;;;;;20.70;97.02;101488.09;2081011;28;20398;-67
2022/08/25 01:25:15;;;;;;;11.27;4.07;;;;;;;20.72;96.92;101486.63;2080741;28;20042;-67
2022/08/25 01:26:21;;;;;;;13.98;4.05;;;;;;;20.74;96.97;101484.38;2080917;28;20030;-67
2022/08/25 01:27:28;;;;;;;13.52;4.07;;;;;;;20.72;96.98;101483.09;2073807;28;20037;-67
2022/08/25 01:29:19;;;;;;;10.50;4.38;;;;;;;20.68;96.90;101484.84;2080888;28;20044;-67
2022/08/25 01:29:57;;;;;;;9.20;3.97;;;;;;;20.68;96.94;101488.41;2072030;28;20034;-67
2022/08/25 01:31:03;;;;;;;12.98;4.30;;;;;;;20.70;97.06;101488.09;2073156;28;20050;-67
2022/08/25 01:32:12;;;;;;;10.52;4.15;;;;;;;20.69;96.96;101491.94;2080997;28;20037;-67
2022/08/25 01:33:16;;;;;;;11.15;4.85;;;;;;;20.71;97.03;101484.22;2065000;28;20042;-67
2022/08/25 01:34:26;;;;;;;15.60;4.70;;;;;;;20.75;96.96;101482.47;2066607;28;20039;-67
2022/08/25 01:35:33;;;;;;;11.82;4.07;;;;;;;20.76;96.91;101481.31;2065482;28;20050;-67
2022/08/25 01:36:42;;;;;;;18.67;4.40;;;;;;;20.79;96.89;101486.13;2082682;28;20059;-67
2022/08/25 01:37:43;;;;;;;10.73;3.95;;;;;;;20.78;96.96;101490.00;2088107;28;20065;-67
2022/08/25 01:38:51;;;;;;;13.35;4.15;;;;;;;20.78;97.05;101490.81;2072848;28;20053;-67
2022/08/25 01:39:58;;;;;;;14.63;4.40;;;;;;;20.78;97.16;101487.28;2080587;28;20092;-67
2022/08/25 01:41:00;;;;;;;13.35;4.47;;;;;;;20.77;97.27;101488.38;2072268;28;20745;-67
2022/08/25 01:42:04;;;;;;;10.90;4.20;;;;;;;20.78;97.24;101490.00;2072712;28;20036;-66
2022/08/25 01:43:05;;;;;;;9.50;4.40;;;;;;;20.76;97.65;101486.78;2080673;28;20041;-67
2022/08/25 01:44:10;;;;;;;11.13;4.78;;;;;;;20.75;97.70;101488.72;2064366;28;20049;-67
2022/08/25 01:45:11;;;;;;;11.32;4.38;;;;;;;20.75;97.86;101482.47;2073518;28;20410;-67
2022/08/25 01:46:14;;;;;;;16.15;4.63;;;;;;;20.77;97.97;101489.19;2072360;28;20563;-68
2022/08/25 01:47:15;;;;;;;13.60;4.68;;;;;;;20.76;98.30;101484.06;2064733;28;20504;-67
2022/08/25 01:48:20;;;;;;;10.40;4.45;;;;;;;20.74;98.30;101489.03;2072612;28;20510;-69
2022/08/25 01:49:25;;;;;;;8.65;5.00;;;;;;;20.76;98.40;101481.31;2072810;28;20052;-68
2022/08/25 01:50:29;;;;;;;10.23;4.80;;;;;;;20.76;98.81;101481.31;2080322;28;20052;-68
2022/08/25 01:52:02;;;;;;;12.23;4.90;;;;;;;20.77;98.88;101488.38;2079665;28;20036;-66
2022/08/25 01:53:07;;;;;;;14.65;5.05;;;;;;;20.78;99.09;101484.53;2063177;28;20056;-68
2022/08/25 01:54:08;;;;;;;16.13;5.90;;;;;;;20.78;99.30;101490.00;2072319;28;20049;-68
2022/08/25 01:55:13;;;;;;;13.18;5.38;;;;;;;20.78;99.52;101484.53;2088403;28;20049;-67
2022/08/25 01:56:18;;;;;;;15.60;5.40;;;;;;;20.80;99.57;101493.19;2080061;28;20045;-69
2022/08/25 01:57:24;;;;;;;10.15;5.32;;;;;;;20.80;99.96;101490.47;2072695;28;20058;-68
2022/08/25 01:58:29;;;;;;;13.77;6.28;;;;;;;20.80;99.97;101488.53;2080441;28;20061;-69
2022/08/25 01:59:32;;;;;;;11.93;5.35;;;;;;;20.80;100.00;101487.72;2080329;28;20049;-68
2022/08/25 02:00:36;;;;;;;14.20;5.95;;;;;;;20.79;100.00;101486.94;2080708;28;20029;-67
2022/08/25 02:01:39;;;;;;;13.73;5.40;;;;;;;20.78;100.00;101484.53;2080271;28;20501;-68
2022/08/25 02:02:41;;;;;;;15.35;5.30;;;;;;;20.76;100.00;101479.38;2072629;28;20033;-68
2022/08/25 02:03:44;;;;;;;9.15;5.22;;;;;;;20.77;100.00;101480.19;2072366;28;20108;-66
2022/08/25 02:04:47;;;;;;;17.30;5.63;;;;;;;20.75;100.00;101487.94;2064311;28;20038;-66
2022/08/25 02:05:49;;;;;;;12.02;5.10;;;;;;;20.75;100.00;101485.19;2080406;28;20034;-66
2022/08/25 02:06:58;;;;;;;9.75;5.18;;;;;;;20.75;100.00;101479.72;2080903;28;20608;-67
2022/08/25 02:08:02;;;;;;;17.58;5.63;;;;;;;20.73;100.00;101480.03;2081028;28;20045;-66
2022/08/25 02:09:09;;;;;;;16.98;6.07;;;;;;;20.72;100.00;101477.63;2072321;28;20038;-64
2022/08/25 02:10:11;;;;;;;12.05;5.20;;;;;;;20.72;100.00;101474.91;2066011;28;20034;-66
2022/08/25 02:11:16;;;;;;;15.93;5.63;;;;;;;20.72;100.00;101480.38;2072381;28;20038;-67
2022/08/25 02:12:21;;;;;;;15.55;5.00;;;;;;;20.71;100.00;101473.28;2071559;28;20060;-66
2022/08/25 02:13:23;;;;;;;13.70;5.20;;;;;;;20.70;100.00;101466.22;2064282;28;20049;-66
2022/08/25 02:14:25;;;;;;;11.55;5.28;;;;;;;20.69;100.00;101470.88;2074653;28;20054;-66
2022/08/25 02:15:29;;;;;;;11.13;5.00;;;;;;;20.70;100.00;101472.47;2087827;28;20032;-66
2022/08/25 02:16:34;;;;;;;11.73;4.95;;;;;;;20.70;100.00;101477.16;2073019;28;20122;-66
2022/08/25 02:17:37;;;;;;;13.02;5.30;;;;;;;20.68;100.00;101474.75;2080563;28;20041;-66
2022/08/25 02:18:39;;;;;;;10.57;5.18;;;;;;;20.70;100.00;101477.94;2067010;28;20045;-66
2022/08/25 02:19:41;;;;;;;15.85;5.45;;;;;;;20.70;100.00;101472.47;2077922;28;20052;-66
2022/08/25 02:20:46;;;;;;;9.13;4.90;;;;;;;20.70;100.00;101471.69;2088650;28;20412;-66
2022/08/25 02:21:48;;;;;;;11.25;4.53;;;;;;;20.70;100.00;101477.94;2088050;28;20036;-66
2022/08/25 02:22:52;;;;;;;10.10;4.75;;;;;;;20.69;100.00;101475.56;2079790;28;20041;-66
2022/08/25 02:23:55;;;;;;;9.48;5.00;;;;;;;20.71;100.00;101479.56;2080427;28;20029;-67
2022/08/25 02:24:58;;;;;;;9.82;4.88;;;;;;;20.70;100.00;101466.22;2079755;28;20057;-66
2022/08/25 02:26:04;;;;;;;11.70;5.50;;;;;;;20.70;100.00;101466.22;2072560;28;20061;-67
2022/08/25 02:27:06;;;;;;;10.77;4.72;;;;;;;20.68;100.00;101471.19;2064307;28;20520;-67
2022/08/25 02:28:13;;;;;;;12.57;5.20;;;;;;;20.69;100.00;101470.88;2064696;28;20050;-67
2022/08/25 02:29:15;;;;;;;10.10;5.10;;;;;;;20.72;100.00;101458.50;2072966;28;20472;-67
2022/08/25 02:30:17;;;;;;;9.13;5.35;;;;;;;20.71;100.00;101465.09;2064223;28;20438;-67
2022/08/25 02:31:26;;;;;;;8.27;4.72;;;;;;;20.74;100.00;101472.63;2056024;28;20045;-67
2022/08/25 02:32:36;;;;;;;10.38;5.10;;;;;;;20.74;100.00;101472.63;2073888;28;20039;-67
2022/08/25 02:33:42;;;;;;;11.98;5.13;;;;;;;20.75;100.00;101466.84;2072099;28;20041;-68
2022/08/25 02:34:47;;;;;;;12.02;4.80;;;;;;;20.75;100.00;101463.31;2074420;28;20046;-68
2022/08/25 02:35:57;;;;;;;14.18;5.07;;;;;;;20.77;100.00;101467.31;2087967;28;20029;-67
2022/08/25 02:37:01;;;;;;;13.52;5.00;;;;;;;20.76;100.00;101473.91;2080758;28;20045;-67
2022/08/25 02:38:06;;;;;;;23.40;7.13;;;;;;;20.75;100.00;101461.38;2064132;28;20042;-66
2022/08/25 02:39:12;;;;;;;11.82;5.00;;;;;;;20.72;100.00;101459.31;2072945;28;20536;-67
2022/08/25 02:40:15;;;;;;;10.40;5.30;;;;;;;20.70;100.00;101466.22;2080142;28;20045;-67
2022/08/25 02:41:24;;;;;;;14.02;4.90;;;;;;;20.70;100.00;101472.47;2072600;28;20042;-67
2022/08/25 02:42:26;;;;;;;10.48;4.97;;;;;;;20.69;100.00;101476.34;2072891;28;20042;-67
2022/08/25 02:43:35;;;;;;;10.25;4.72;;;;;;;20.69;100.00;101464.63;2072539;28;20064;-67
2022/08/25 02:44:36;;;;;;;13.73;4.88;;;;;;;20.69;100.00;101467.34;2072170;28;20042;-67
2022/08/25 02:45:44;;;;;;;8.27;4.53;;;;;;;20.68;100.00;101452.06;2072430;28;20057;-68
2022/08/25 02:46:49;;;;;;;11.38;5.03;;;;;;;20.67;100.00;101461.41;2080817;28;20053;-67
2022/08/25 02:47:55;;;;;;;13.13;4.85;;;;;;;20.67;100.00;101461.41;2072023;28;20241;-67
2022/08/25 02:48:57;;;;;;;15.52;4.65;;;;;;;20.68;100.00;101454.81;2072987;28;20036;-67
2022/08/25 02:50:00;;;;;;;13.23;5.18;;;;;;;20.67;100.00;101454.00;2088395;28;20043;-68
2022/08/25 02:51:05;;;;;;;9.98;4.95;;;;;;;20.65;100.00;101456.28;2080326;28;20107;-67
2022/08/25 02:52:10;;;;;;;7.78;4.80;;;;;;;20.63;100.00;101455.00;2072091;28;20037;-67
2022/08/25 02:53:14;;;;;;;13.65;4.95;;;;;;;20.62;100.00;101458.81;2072736;28;20061;-67
2022/08/25 02:54:17;;;;;;;14.25;5.05;;;;;;;20.59;100.00;101450.16;2088384;28;20049;-67
2022/08/25 02:55:25;;;;;;;16.95;4.97;;;;;;;20.60;100.00;101451.78;2087374;28;20049;-67
2022/08/25 02:56:27;;;;;;;8.60;5.10;;;;;;;20.60;100.00;101443.56;2088208;28;20049;-67
2022/08/25 02:57:29;;;;;;;14.43;4.53;;;;;;;20.62;100.00;101442.44;2080371;28;20040;-67
2022/08/25 02:58:33;;;;;;;14.35;4.60;;;;;;;20.63;100.00;101441.31;2072125;28;20061;-67
2022/08/25 02:59:38;;;;;;;9.20;4.35;;;;;;;20.62;100.00;101442.44;2080334;28;20037;-67
2022/08/25 03:00:40;;;;;;;11.38;4.68;;;;;;;20.63;100.00;101444.06;2080252;28;20456;-67
2022/08/25 03:01:45;;;;;;;10.63;4.60;;;;;;;20.63;100.00;101444.06;2080238;28;20044;-67
2022/08/25 03:02:47;;;;;;;10.50;4.72;;;;;;;20.65;100.00;101447.25;2080314;28;20056;-67
2022/08/25 03:03:53;;;;;;;10.82;4.63;;;;;;;20.66;100.00;101446.94;2071715;28;20053;-67
2022/08/25 03:04:56;;;;;;;14.63;5.30;;;;;;;20.64;100.00;101445.66;2072533;28;20037;-67
2022/08/25 03:06:01;;;;;;;10.93;4.47;;;;;;;20.64;100.00;101446.47;2083876;28;20036;-67
2022/08/25 03:07:07;;;;;;;11.98;4.60;;;;;;;20.66;100.00;101451.59;2079554;28;20049;-67
2022/08/25 03:08:12;;;;;;;13.73;5.18;;;;;;;20.67;100.00;101450.47;2064151;28;20057;-67
2022/08/25 03:09:21;;;;;;;13.15;4.50;;;;;;;20.68;100.00;101452.06;2066559;28;20050;-67
2022/08/25 03:10:23;;;;;;;8.55;4.13;;;;;;;20.68;100.00;101460.25;2065015;28;20034;-67
2022/08/25 03:11:25;;;;;;;12.80;4.93;;;;;;;20.66;100.00;101444.22;2063934;28;20074;-67
2022/08/25 03:12:29;;;;;;;14.88;4.43;;;;;;;20.67;100.00;101448.53;2064451;28;20042;-67
2022/08/25 03:13:31;;;;;;;9.70;4.32;;;;;;;20.66;100.00;101448.88;2072066;28;20042;-67
2022/08/25 03:14:33;;;;;;;7.72;4.47;;;;;;;20.65;100.00;101447.25;2069035;28;20367;-68
2022/08/25 03:15:38;;;;;;;12.30;4.88;;;;;;;20.67;100.00;101445.00;2064219;28;20057;-67
2022/08/25 03:16:47;;;;;;;;;;;;;;;20.68;100.00;101452.06;2072105;28;20052;-67
2022/08/25 03:17:52;;;;;;;14.02;4.90;;;;;;;20.70;100.00;101444.34;2087824;28;20424;-67
2022/08/25 03:18:58;;;;;;;14.13;4.70;;;;;;;20.72;100.00;101453.03;2071970;28;20148;-66
2022/08/25 03:20:00;;;;;;;13.27;4.60;;;;;;;20.69;100.00;101448.22;2064334;28;20026;-67
2022/08/25 03:21:05;;;;;;;12.70;4.63;;;;;;;20.72;100.00;101450.31;2079376;28;20052;-66
2022/08/25 03:22:10;;;;;;;13.25;4.72;;;;;;;20.71;100.00;101452.25;2071696;28;20042;-67
2022/08/25 03:23:13;;;;;;;8.30;4.70;;;;;;;20.72;100.00;101448.38;2064956;28;20038;-66
2022/08/25 03:24:18;;;;;;;13.52;3.85;;;;;;;20.73;100.00;101452.69;2080082;28;20041;-67
2022/08/25 03:26:54;;;;;;;13.40;4.88;;;;;;;20.75;100.00;101455.13;2079533;28;20057;-67
2022/08/25 03:27:59;;;;;;;10.80;4.80;;;;;;;20.77;100.00;101450.91;2071918;28;20080;-67
2022/08/25 03:29:04;;;;;;;14.77;5.03;;;;;;;20.76;100.00;101449.31;2064231;28;20034;-67
2022/08/25 03:30:07;;;;;;;15.82;5.72;;;;;;;20.74;100.00;101456.22;2088083;28;20115;-67
2022/08/25 03:31:10;;;;;;;16.17;5.10;;;;;;;20.73;100.00;101454.63;2088020;28;20432;-67
2022/08/25 03:32:15;;;;;;;10.73;4.40;;;;;;;20.72;100.00;101447.56;2080014;28;20029;-67
2022/08/25 03:33:19;;;;;;;8.85;4.60;;;;;;;20.72;100.00;101447.56;2071930;28;20101;-67
2022/08/25 03:34:22;;;;;;;10.02;4.78;;;;;;;20.74;100.00;101450.78;2055693;28;20447;-67
2022/08/25 03:35:26;;;;;;;12.00;4.57;;;;;;;20.73;100.00;101446.44;2064193;28;20534;-67
2022/08/25 03:36:32;;;;;;;10.00;4.53;;;;;;;20.73;100.00;101454.63;2071991;28;20050;-67
2022/08/25 03:37:33;;;;;;;11.38;4.75;;;;;;;20.74;100.00;101456.22;2079332;28;20044;-67
2022/08/25 03:38:37;;;;;;;11.45;4.35;;;;;;;20.75;100.00;101452.41;2071621;28;20038;-67
2022/08/25 03:39:41;;;;;;;8.77;4.43;;;;;;;20.73;100.00;101469.09;2072262;28;20034;-68
2022/08/25 03:40:43;;;;;;;12.02;4.45;;;;;;;20.72;100.00;101456.56;2071741;28;20497;-68
2022/08/25 03:41:52;;;;;;;7.93;4.50;;;;;;;20.71;100.00;101452.25;2079717;28;20056;-66
2022/08/25 03:42:56;;;;;;;15.32;5.30;;;;;;;20.72;100.00;101458.50;2079948;28;20048;-66
2022/08/25 03:43:59;;;;;;;12.13;4.78;;;;;;;20.74;100.00;101456.22;2079930;28;20375;-66
2022/08/25 03:45:04;;;;;;;12.30;4.88;;;;;;;20.74;100.00;101450.78;2063501;28;20626;-67
2022/08/25 03:46:07;;;;;;;11.88;5.05;;;;;;;20.75;100.00;101450.47;2064825;28;20049;-66
2022/08/25 03:47:13;;;;;;;8.90;4.60;;;;;;;20.77;100.00;101455.59;2079782;28;20148;-66
2022/08/25 03:48:18;;;;;;;14.50;4.72;;;;;;;20.77;100.00;101452.84;2071726;28;20433;-68
2022/08/25 03:49:22;;;;;;;12.82;4.82;;;;;;;20.75;100.00;101453.19;2063702;28;20049;-67
2022/08/25 03:50:26;;;;;;;12.93;5.18;;;;;;;20.73;100.00;101455.44;2072443;28;20041;-67
2022/08/25 03:51:34;;;;;;;13.10;4.60;;;;;;;20.73;100.00;101463.63;2080250;28;20037;-66
2022/08/25 03:52:42;;;;;;;13.35;5.13;;;;;;;20.74;100.00;101457.06;2086606;28;20067;-67
2022/08/25 03:53:46;;;;;;;14.48;5.22;;;;;;;20.74;100.00;101461.69;2071426;28;20537;-66
2022/08/25 03:54:48;;;;;;;8.43;4.15;;;;;;;20.75;100.00;101458.66;2072095;28;20038;-66
2022/08/25 03:55:56;;;;;;;9.48;4.00;;;;;;;20.77;100.00;101456.38;2079426;28;20053;-66
2022/08/25 03:57:05;;;;;;;9.57;4.30;;;;;;;20.78;100.00;101468.13;2080980;28;20048;-66
2022/08/25 03:58:13;;;;;;;15.05;5.50;;;;;;;20.75;100.00;101458.66;2079449;28;20513;-66
2022/08/25 03:59:20;;;;;;;14.90;5.30;;;;;;;20.77;100.00;101458.31;2081140;28;20042;-65
2022/08/25 04:00:22;;;;;;;11.40;5.13;;;;;;;20.75;100.00;101458.66;2088106;28;20040;-67
2022/08/25 04:01:25;;;;;;;15.25;5.15;;;;;;;20.76;100.00;101460.25;2079881;28;20048;-66
2022/08/25 04:02:28;;;;;;;16.17;4.80;;;;;;;20.76;100.00;101459.44;2063935;28;20034;-66
2022/08/25 04:03:32;;;;;;;9.27;4.75;;;;;;;20.77;100.00;101461.06;2055616;28;20035;-66
2022/08/25 04:04:39;;;;;;;10.60;4.75;;;;;;;20.79;100.00;101464.28;2066567;28;20043;-67
2022/08/25 04:05:44;;;;;;;9.25;5.10;;;;;;;20.79;100.00;101465.06;2073311;28;20061;-66
2022/08/25 04:06:49;;;;;;;13.20;5.10;;;;;;;20.78;100.00;101470.88;2080375;28;20036;-66
2022/08/25 04:07:53;;;;;;;7.38;4.35;;;;;;;20.79;100.00;101478.72;2079428;28;20053;-66
2022/08/25 04:08:59;;;;;;;12.15;4.90;;;;;;;20.81;100.00;101468.28;2079948;28;20033;-66
2022/08/25 04:10:08;;;;;;;12.70;5.10;;;;;;;20.83;100.00;101470.69;2071502;28;20853;-66
2022/08/25 04:11:18;;;;;;;11.43;4.72;;;;;;;20.83;100.00;101467.94;2051970;28;20035;-65
2022/08/25 04:12:20;;;;;;;;;;;;;;;20.82;100.00;101458.16;2055812;28;20065;-66
2022/08/25 04:13:24;;;;;;;12.63;4.63;;;;;;;20.80;100.00;101460.41;2056344;28;19921;-67
2022/08/25 04:14:30;;;;;;;13.95;4.88;;;;;;;20.80;100.00;101460.41;2080135;28;20400;-66
2022/08/25 04:15:32;;;;;;;14.27;4.43;;;;;;;20.77;100.00;101452.84;2071008;28;20406;-67
2022/08/25 04:16:39;;;;;;;15.45;5.25;;;;;;;20.77;100.00;101450.13;2063989;28;20402;-66
2022/08/25 04:17:41;;;;;;;11.70;4.90;;;;;;;20.77;100.00;101455.59;2077458;28;20033;-66
2022/08/25 04:18:49;;;;;;;11.05;4.72;;;;;;;20.75;100.00;101452.41;2072253;28;20053;-66
2022/08/25 04:19:54;;;;;;;12.32;4.65;;;;;;;20.75;100.00;101446.94;2063880;28;20042;-66
2022/08/25 04:21:04;;;;;;;13.60;4.72;;;;;;;20.73;100.00;101444.50;2057523;28;20035;-66
2022/08/25 04:22:08;;;;;;;17.00;5.95;;;;;;;20.74;100.00;101439.84;2071375;28;20053;-66
2022/08/25 04:23:16;;;;;;;10.32;4.60;;;;;;;20.74;100.00;101439.84;2065951;28;20041;-66
2022/08/25 04:24:20;;;;;;;14.07;5.60;;;;;;;20.73;100.00;101432.78;2071791;28;20045;-67
2022/08/25 04:25:23;;;;;;;14.13;5.28;;;;;;;20.77;100.00;101441.91;2078743;28;20568;-66
2022/08/25 04:26:33;;;;;;;13.30;5.15;;;;;;;20.79;100.00;101445.13;2078729;28;20429;-66
2022/08/25 04:27:36;;;;;;;9.93;4.88;;;;;;;20.79;100.00;101432.28;2079545;28;20048;-66
2022/08/25 04:28:38;;;;;;;16.63;4.70;;;;;;;20.80;100.00;101438.53;2071325;28;20545;-66
2022/08/25 04:29:46;;;;;;;15.70;4.22;;;;;;;20.82;100.00;101450.75;2074076;28;20038;-66
2022/08/25 04:30:48;;;;;;;10.02;4.38;;;;;;;20.83;100.00;101448.81;2078880;28;20047;-67
2022/08/25 04:31:54;;;;;;;13.43;4.38;;;;;;;20.83;100.00;101454.28;2071630;28;20034;-66
2022/08/25 04:32:56;;;;;;;15.13;4.68;;;;;;;20.84;100.00;101444.97;2071457;28;20494;-66
2022/08/25 04:34:04;;;;;;;11.00;4.60;;;;;;;20.83;100.00;101451.56;2071628;28;20050;-66
2022/08/25 04:35:10;;;;;;;14.55;4.20;;;;;;;20.83;100.00;101449.63;2078262;28;20080;-67
2022/08/25 04:36:12;;;;;;;14.15;4.90;;;;;;;20.86;100.00;101459.09;2081964;28;20032;-66
2022/08/25 04:37:14;;;;;;;9.77;4.57;;;;;;;20.88;100.00;101456.84;2089346;28;20440;-66
2022/08/25 04:38:16;;;;;;;11.25;4.88;;;;;;;20.89;100.00;101452.19;2073111;28;20037;-66
2022/08/25 04:39:19;;;;;;;12.23;4.32;;;;;;;20.89;100.00;101454.91;2065122;28;20034;-66
2022/08/25 04:40:22;;;;;;;10.32;4.30;;;;;;;20.86;100.00;101459.09;2061801;28;20038;-66
2022/08/25 04:41:30;;;;;;;12.68;4.60;;;;;;;20.85;100.00;101452.03;2073869;28;20034;-66
2022/08/25 04:42:35;;;;;;;13.05;5.28;;;;;;;20.84;100.00;101455.91;2074145;28;20045;-67
2022/08/25 04:43:42;;;;;;;10.52;4.15;;;;;;;20.87;100.00;101455.25;2065505;28;20050;-66
2022/08/25 04:44:47;;;;;;;12.80;4.88;;;;;;;20.87;100.00;101452.53;2066121;28;20041;-66
2022/08/25 04:45:49;;;;;;;11.25;5.10;;;;;;;20.88;100.00;101456.84;2081346;28;20045;-66
2022/08/25 04:46:51;;;;;;;16.15;4.60;;;;;;;20.85;100.00;101452.03;2081317;28;20037;-66
2022/08/25 04:48:01;;;;;;;12.52;4.60;;;;;;;20.87;100.00;101466.19;2080844;28;20041;-67
2022/08/25 04:49:04;;;;;;;11.48;5.00;;;;;;;20.88;100.00;101459.59;2072939;28;20461;-66
2022/08/25 04:50:10;;;;;;;16.40;4.60;;;;;;;20.88;100.00;101454.13;2082143;28;20487;-66
2022/08/25 04:51:15;;;;;;;11.43;4.20;;;;;;;20.90;100.00;101451.03;2088831;28;20045;-67
2022/08/25 04:52:19;;;;;;;13.30;4.95;;;;;;;20.92;100.00;101457.78;2081330;28;20488;-66
2022/08/25 04:53:24;;;;;;;11.32;4.90;;;;;;;20.91;100.00;101461.66;2073002;28;20042;-67
2022/08/25 04:54:32;;;;;;;17.15;4.30;;;;;;;20.91;100.00;101458.94;2082743;28;20477;-68
2022/08/25 04:55:41;;;;;;;23.35;5.43;;;;;;;20.90;100.00;101460.06;2096350;28;20345;-68
2022/08/25 04:56:47;;;;;;;7.03;4.30;;;;;;;20.90;100.00;101453.78;2080779;28;20057;-68
2022/08/25 04:57:53;;;;;;;16.10;5.53;;;;;;;20.90;100.00;101462.81;2080464;28;20057;-68
2022/08/25 04:59:01;;;;;;;16.50;4.63;;;;;;;20.92;100.00;101457.00;2081213;28;20509;-68
2022/08/25 05:00:08;;;;;;;12.27;4.80;;;;;;;20.89;100.00;101463.13;2074559;28;20080;-71